createdAt,value
2023-01-01T00:01:53.359Z,44.60
2023-01-01T00:06:54.723Z,61.67
2023-01-01T00:11:56.029Z,92.15
2023-01-01T00:16:57.382Z,122.78
2023-01-01T00:22:02.086Z,141.00
2023-01-01T00:27:06.834Z,120.13
2023-01-01T00:32:11.543Z,185.90
2023-01-01T00:37:14.836Z,127.95
2023-01-01T00:42:16.111Z,125.53
2023-01-01T00:47:17.433Z,139.40
2023-01-01T00:52:18.697Z,148.27
2023-01-01T00:57:19.955Z,154.73
2023-01-01T01:02:21.412Z,173.63
2023-01-01T01:07:22.763Z,173.77
2023-01-01T01:12:24.004Z,124.43
2023-01-01T01:17:25.295Z,118.00
2023-01-01T01:22:28.908Z,136.93
2023-01-01T01:27:30.610Z,140.60
2023-01-01T01:32:31.885Z,121.68
2023-01-01T01:37:33.163Z,125.15
2023-01-01T01:42:34.421Z,127.07
2023-01-01T01:47:37.510Z,118.87
2023-01-01T01:52:41.109Z,113.85
2023-01-01T01:57:42.438Z,113.10
2023-01-01T02:02:50.862Z,100.50
2023-01-01T02:07:52.912Z,79.85
2023-01-01T02:12:54.371Z,64.53
2023-01-01T02:18:00.501Z,62.05
2023-01-01T02:23:11.032Z,56.90
2023-01-01T02:28:24.108Z,54.60
2023-01-01T02:33:26.293Z,42.03
2023-01-01T02:38:32.819Z,46.87
2023-01-01T02:43:34.138Z,43.88
2023-01-01T02:48:40.494Z,41.90
2023-01-01T02:53:45.465Z,35.00
2023-01-01T02:59:05.618Z,43.92
2023-01-01T03:04:09.222Z,31.73
2023-01-01T03:09:33.855Z,32.95
2023-01-01T03:14:35.160Z,29.02
2023-01-01T03:19:40.155Z,34.63
2023-01-01T03:24:47.095Z,38.38
2023-01-01T03:29:50.148Z,33.77
2023-01-01T03:34:54.798Z,29.27
2023-01-01T03:39:57.546Z,28.33
2023-01-01T03:45:01.759Z,23.10
2023-01-01T03:50:03.976Z,25.27
2023-01-01T03:55:05.400Z,28.30
2023-01-01T04:00:11.405Z,33.45
2023-01-01T04:05:13.610Z,28.98
2023-01-01T04:10:18.006Z,29.30
2023-01-01T04:15:20.695Z,24.05
2023-01-01T04:20:22.024Z,24.53
2023-01-01T04:25:23.374Z,21.42
2023-01-01T04:30:25.122Z,21.85
2023-01-01T04:35:26.390Z,14.97
2023-01-01T04:40:27.710Z,14.73
2023-01-01T04:45:29.132Z,21.23
2023-01-01T04:50:30.450Z,16.33
2023-01-01T04:55:31.739Z,14.23
2023-01-01T05:00:33.608Z,14.53
2023-01-01T05:05:34.920Z,14.60
2023-01-01T05:10:36.201Z,9.07
2023-01-01T05:15:37.651Z,9.48
2023-01-01T05:20:38.895Z,7.80
2023-01-01T05:25:40.146Z,9.13
2023-01-01T05:30:41.626Z,7.18
2023-01-01T05:35:42.911Z,7.50
2023-01-01T05:40:44.165Z,5.00
2023-01-01T05:45:45.571Z,4.20
2023-01-01T05:50:46.938Z,3.90
2023-01-01T05:55:54.221Z,3.47
2023-01-01T06:00:55.600Z,3.47
2023-01-01T06:05:56.909Z,3.55
2023-01-01T06:11:00.946Z,3.10
2023-01-01T06:16:02.994Z,3.40
2023-01-01T06:21:08.228Z,2.58
2023-01-01T06:26:11.381Z,1.47
2023-01-01T06:31:14.534Z,2.63
2023-01-01T06:36:16.523Z,3.15
2023-01-01T06:41:18.895Z,1.70
2023-01-01T06:46:21.527Z,2.40
2023-01-01T06:51:30.138Z,3.00
2023-01-01T06:56:31.559Z,3.03
2023-01-01T07:01:33.912Z,4.32
2023-01-01T07:06:35.589Z,2.70
2023-01-01T07:11:36.902Z,1.98
2023-01-01T07:16:38.233Z,3.88
2023-01-01T07:21:51.617Z,2.83
2023-01-01T07:26:52.945Z,2.70
2023-01-01T07:31:54.285Z,2.30
2023-01-01T07:36:56.557Z,2.22
2023-01-01T07:41:57.811Z,2.03
2023-01-01T07:47:05.699Z,1.50
2023-01-01T07:52:06.947Z,1.50
2023-01-01T07:57:08.250Z,1.87
2023-01-01T08:02:11.177Z,2.00
2023-01-01T08:07:12.492Z,2.88
2023-01-01T08:12:13.749Z,4.27
2023-01-01T08:17:14.988Z,4.30
2023-01-01T08:22:16.294Z,4.05
2023-01-01T08:27:17.682Z,4.40
2023-01-01T08:32:18.943Z,4.10
2023-01-01T08:37:21.249Z,4.37
2023-01-01T08:42:22.566Z,3.97
2023-01-01T08:47:25.043Z,4.22
2023-01-01T08:52:26.301Z,4.73
2023-01-01T08:57:30.119Z,4.40
2023-01-01T09:02:31.693Z,4.27
2023-01-01T09:07:33.083Z,4.03
2023-01-01T09:12:34.628Z,3.72
2023-01-01T09:17:35.878Z,3.30
2023-01-01T09:22:37.382Z,3.63
2023-01-01T09:27:38.880Z,3.90
2023-01-01T09:32:40.160Z,3.23
2023-01-01T09:37:41.456Z,3.10
2023-01-01T09:42:45.147Z,2.83
2023-01-01T09:47:47.339Z,2.20
2023-01-01T09:52:52.034Z,2.10
2023-01-01T09:57:54.563Z,1.87
2023-01-01T10:03:08.895Z,1.50
2023-01-01T10:08:23.449Z,1.70
2023-01-01T10:13:39.439Z,2.13
2023-01-01T10:18:42.301Z,1.83
2023-01-01T10:23:47.250Z,2.53
2023-01-01T10:28:51.963Z,2.00
2023-01-01T10:33:53.259Z,2.05
2023-01-01T10:38:54.530Z,2.37
2023-01-01T10:43:55.892Z,1.60
2023-01-01T10:49:11.052Z,1.42
2023-01-01T10:54:31.114Z,2.00
2023-01-01T10:59:34.949Z,1.70
2023-01-01T11:04:36.264Z,2.00
2023-01-01T11:09:39.384Z,2.05
2023-01-01T11:14:59.381Z,2.03
2023-01-01T11:20:02.549Z,1.63
2023-01-01T11:25:05.118Z,1.70
2023-01-01T11:30:26.767Z,1.73
2023-01-01T11:35:29.319Z,1.92
2023-01-01T11:40:37.244Z,1.90
2023-01-01T11:45:40.621Z,2.50
2023-01-01T11:50:53.647Z,1.92
2023-01-01T11:56:04.526Z,2.00
2023-01-01T12:01:24.760Z,2.53
2023-01-01T12:06:30.830Z,1.75
2023-01-01T12:11:36.326Z,1.70
2023-01-01T12:16:37.604Z,2.00
2023-01-01T12:21:40.657Z,2.10
2023-01-01T12:27:10.587Z,1.90
2023-01-01T12:32:19.385Z,2.00
2023-01-01T12:37:39.580Z,1.60
2023-01-01T12:42:43.913Z,1.77
2023-01-01T12:47:54.254Z,1.55
2023-01-01T12:52:55.531Z,2.30
2023-01-01T12:58:10.877Z,1.40
2023-01-01T13:03:18.360Z,2.03
2023-01-01T13:08:19.783Z,1.77
2023-01-01T13:13:21.359Z,1.75
2023-01-01T13:18:24.285Z,2.15
2023-01-01T13:23:28.688Z,2.57
2023-01-01T13:28:29.958Z,1.80
2023-01-01T13:33:36.792Z,1.70
2023-01-01T13:38:51.020Z,1.90
2023-01-01T13:43:52.930Z,1.95
2023-01-01T13:49:00.985Z,1.80
2023-01-01T13:54:14.983Z,1.70
2023-01-01T13:59:33.176Z,10.20
2023-01-01T14:04:34.454Z,4.80
2023-01-01T14:09:35.758Z,6.87
2023-01-01T14:14:37.124Z,12.47
2023-01-01T14:19:39.659Z,3.70
2023-01-01T14:24:42.777Z,2.70
2023-01-01T14:29:45.911Z,3.57
2023-01-01T14:34:47.255Z,3.97
2023-01-01T14:40:04.109Z,3.10
2023-01-01T14:45:05.655Z,3.67
2023-01-01T14:50:09.878Z,3.88
2023-01-01T14:55:17.108Z,3.03
2023-01-01T15:00:23.251Z,3.70
2023-01-01T15:05:35.389Z,2.40
2023-01-01T15:10:37.995Z,2.22
2023-01-01T15:15:43.551Z,3.37
2023-01-01T15:20:52.334Z,3.17
2023-01-01T15:25:53.632Z,3.50
2023-01-01T15:30:55.666Z,3.40
2023-01-01T15:36:07.385Z,4.03
2023-01-01T15:41:25.057Z,3.30
2023-01-01T15:46:32.612Z,4.50
2023-01-01T15:51:34.317Z,3.90
2023-01-01T15:56:39.193Z,3.10
2023-01-01T16:01:40.727Z,3.50
2023-01-01T16:06:43.934Z,5.43
2023-01-01T16:11:45.292Z,6.78
2023-01-01T16:16:51.104Z,6.10
2023-01-01T16:21:52.534Z,5.00
2023-01-01T16:26:53.834Z,5.70
2023-01-01T16:31:55.111Z,5.50
2023-01-01T16:36:56.377Z,5.40
2023-01-01T16:41:58.494Z,5.70
2023-01-01T16:46:59.772Z,8.80
2023-01-01T16:52:01.070Z,9.07
2023-01-01T16:57:02.452Z,10.53
2023-01-01T17:02:03.823Z,10.48
2023-01-01T17:07:05.156Z,12.15
2023-01-01T17:12:06.549Z,14.50
2023-01-01T17:17:07.795Z,7.97
2023-01-01T17:22:09.054Z,7.30
2023-01-01T17:27:10.301Z,7.83
2023-01-01T17:32:13.713Z,9.05
2023-01-01T17:37:15.016Z,10.47
2023-01-01T17:42:16.327Z,12.57
2023-01-01T17:47:17.617Z,8.80
2023-01-01T17:52:18.957Z,9.33
2023-01-01T17:57:20.272Z,9.73
2023-01-01T18:02:21.714Z,8.77
2023-01-01T18:07:23.218Z,8.43
2023-01-01T18:12:24.487Z,8.38
2023-01-01T18:17:25.835Z,8.30
2023-01-01T18:22:27.136Z,8.25
2023-01-01T18:27:28.428Z,9.27
2023-01-01T18:32:29.681Z,10.25
2023-01-01T18:37:30.969Z,10.02
2023-01-01T18:42:38.697Z,8.80
2023-01-01T18:47:40.023Z,9.82
2023-01-01T18:52:41.334Z,9.20
2023-01-01T18:57:44.144Z,9.98
2023-01-01T19:02:49.366Z,12.18
2023-01-01T19:07:53.280Z,10.40
2023-01-01T19:12:54.939Z,9.50
2023-01-01T19:17:56.460Z,12.10
2023-01-01T19:22:57.767Z,12.60
2023-01-01T19:28:13.332Z,12.93
2023-01-01T19:33:14.684Z,13.10
2023-01-01T19:38:16.123Z,11.55
2023-01-01T19:43:17.421Z,11.07
2023-01-01T19:48:18.782Z,12.52
2023-01-01T19:53:20.100Z,13.15
2023-01-01T19:58:22.888Z,14.97
2023-01-01T20:08:45.688Z,9.13
2023-01-01T20:13:47.131Z,11.75
2023-01-01T20:18:49.344Z,12.38
2023-01-01T20:23:50.628Z,10.30
2023-01-01T20:29:10.727Z,11.23
2023-01-01T20:34:12.071Z,11.60
2023-01-01T20:39:13.388Z,9.80
2023-01-01T20:44:14.629Z,11.45
2023-01-01T20:49:17.128Z,11.13
2023-01-01T20:54:19.068Z,11.35
2023-01-01T20:59:38.090Z,10.20
2023-01-01T21:04:40.363Z,10.05
2023-01-01T21:09:41.897Z,10.35
2023-01-01T21:14:43.200Z,12.03
2023-01-01T21:19:44.706Z,11.48
2023-01-01T21:24:49.843Z,10.93
2023-01-01T21:29:57.086Z,9.73
2023-01-01T21:34:58.359Z,10.60
2023-01-01T21:39:59.619Z,10.67
2023-01-01T21:45:01.081Z,10.70
2023-01-01T21:50:02.402Z,10.93
2023-01-01T21:55:11.068Z,10.20
2023-01-01T22:00:19.417Z,10.00
2023-01-01T22:05:31.342Z,10.17
2023-01-01T22:10:34.946Z,9.70
2023-01-01T22:15:40.277Z,9.20
2023-01-01T22:20:45.112Z,9.32
2023-01-01T22:25:46.940Z,8.88
2023-01-01T22:30:50.143Z,9.10
2023-01-01T22:35:53.591Z,8.05
2023-01-01T22:40:54.847Z,8.90
2023-01-01T22:45:56.253Z,7.82
2023-01-01T22:50:59.407Z,7.72
2023-01-01T22:56:00.684Z,8.90
2023-01-01T23:01:02.049Z,9.80
2023-01-01T23:06:03.484Z,9.77
2023-01-01T23:11:04.887Z,9.80
2023-01-01T23:16:06.206Z,9.38
2023-01-01T23:21:09.293Z,8.38
2023-01-01T23:26:11.044Z,8.82
2023-01-01T23:31:16.077Z,9.30
2023-01-01T23:36:21.293Z,8.77
2023-01-01T23:41:23.106Z,8.82
2023-01-01T23:46:24.688Z,8.73
2023-01-01T23:51:26.030Z,9.20
2023-01-01T23:56:27.317Z,9.27
